sensor_id;sensor_type;location;lat;lon;timestamp;pressure;altitude;pressure_sealevel;temperature;humidity
58239;BME280;44037;55.638;37.356;2023-03-25T00:01:30;97965.75;;;4.93;100.00
58239;BME280;44037;55.638;37.356;2023-03-25T00:03:59;97961.47;;;4.92;100.00
58239;BME280;44037;55.638;37.356;2023-03-25T00:06:29;97963.19;;;4.91;100.00
58239;BME280;44037;55.638;37.356;2023-03-25T00:08:59;97962.34;;;4.91;100.00
58239;BME280;44037;55.638;37.356;2023-03-25T00:11:28;97958.06;;;4.90;100.00
58239;BME280;44037;55.638;37.356;2023-03-25T00:13:55;97948.63;;;4.87;100.00
58239;BME280;44037;55.638;37.356;2023-03-25T00:16:23;97952.06;;;4.88;100.00
58239;BME280;44037;55.638;37.356;2023-03-25T00:18:50;97948.66;;;4.89;100.00
58239;BME280;44037;55.638;37.356;2023-03-25T00:21:18;97938.34;;;4.87;100.00
58239;BME280;44037;55.638;37.356;2023-03-25T00:23:46;97943.50;;;4.87;100.00
58239;BME280;44037;55.638;37.356;2023-03-25T00:26:13;97927.25;;;4.87;100.00
58239;BME280;44037;55.638;37.356;2023-03-25T00:28:40;97925.53;;;4.86;100.00
58239;BME280;44037;55.638;37.356;2023-03-25T00:31:10;97914.41;;;4.84;100.00
58239;BME280;44037;55.638;37.356;2023-03-25T00:33:38;97911.81;;;4.84;100.00
58239;BME280;44037;55.638;37.356;2023-03-25T00:36:06;97905.84;;;4.83;100.00
58239;BME280;44037;55.638;37.356;2023-03-25T00:38:35;97903.28;;;4.83;100.00
58239;BME280;44037;55.638;37.356;2023-03-25T00:41:08;97907.53;;;4.83;100.00
58239;BME280;44037;55.638;37.356;2023-03-25T00:43:35;97894.72;;;4.83;100.00
58239;BME280;44037;55.638;37.356;2023-03-25T00:46:03;97889.59;;;4.83;100.00
58239;BME280;44037;55.638;37.356;2023-03-25T00:48:30;97888.72;;;4.84;100.00
58239;BME280;44037;55.638;37.356;2023-03-25T00:50:57;97893.00;;;4.85;100.00
58239;BME280;44037;55.638;37.356;2023-03-25T00:53:32;97893.88;;;4.84;100.00
58239;BME280;44037;55.638;37.356;2023-03-25T00:56:01;97888.72;;;4.85;100.00
58239;BME280;44037;55.638;37.356;2023-03-25T00:58:28;97887.88;;;4.85;100.00
58239;BME280;44037;55.638;37.356;2023-03-25T01:00:55;97887.03;;;4.86;100.00
58239;BME280;44037;55.638;37.356;2023-03-25T01:03:22;97884.47;;;4.86;100.00
58239;BME280;44037;55.638;37.356;2023-03-25T01:05:49;97890.50;;;4.91;100.00
58239;BME280;44037;55.638;37.356;2023-03-25T01:08:19;97899.91;;;4.95;100.00
58239;BME280;44037;55.638;37.356;2023-03-25T01:10:51;97894.78;;;5.00;100.00
58239;BME280;44037;55.638;37.356;2023-03-25T01:13:21;97881.09;;;5.05;100.00
58239;BME280;44037;55.638;37.356;2023-03-25T01:15:48;97882.00;;;5.09;100.00
58239;BME280;44037;55.638;37.356;2023-03-25T01:18:16;97868.28;;;5.08;100.00
58239;BME280;44037;55.638;37.356;2023-03-25T01:20:43;97868.31;;;5.10;100.00
58239;BME280;44037;55.638;37.356;2023-03-25T01:23:10;97874.28;;;5.11;100.00
58239;BME280;44037;55.638;37.356;2023-03-25T01:25:37;97873.44;;;5.10;100.00
58239;BME280;44037;55.638;37.356;2023-03-25T01:28:05;97864.00;;;5.11;100.00
58239;BME280;44037;55.638;37.356;2023-03-25T01:30:33;97856.31;;;5.11;100.00
58239;BME280;44037;55.638;37.356;2023-03-25T01:33:00;97847.75;;;5.12;100.00
58239;BME280;44037;55.638;37.356;2023-03-25T01:35:27;97847.75;;;5.12;100.00
58239;BME280;44037;55.638;37.356;2023-03-25T01:37:54;97845.19;;;5.12;100.00
58239;BME280;44037;55.638;37.356;2023-03-25T01:40:22;97842.63;;;5.10;100.00
58239;BME280;44037;55.638;37.356;2023-03-25T01:42:50;97834.06;;;5.10;100.00
58239;BME280;44037;55.638;37.356;2023-03-25T01:45:25;97822.09;;;5.10;100.00
58239;BME280;44037;55.638;37.356;2023-03-25T01:47:59;97818.66;;;5.11;100.00
58239;BME280;44037;55.638;37.356;2023-03-25T01:50:29;97818.66;;;5.11;100.00
58239;BME280;44037;55.638;37.356;2023-03-25T01:52:58;97816.94;;;5.12;100.00
58239;BME280;44037;55.638;37.356;2023-03-25T01:55:28;97815.22;;;5.12;100.00
58239;BME280;44037;55.638;37.356;2023-03-25T01:57:59;97816.94;;;5.12;100.00
58239;BME280;44037;55.638;37.356;2023-03-25T02:00:30;97812.66;;;5.11;100.00
58239;BME280;44037;55.638;37.356;2023-03-25T02:03:01;97804.94;;;5.07;100.00
58239;BME280;44037;55.638;37.356;2023-03-25T02:05:35;97799.81;;;5.06;100.00
58239;BME280;44037;55.638;37.356;2023-03-25T02:08:04;97809.22;;;5.04;100.00
58239;BME280;44037;55.638;37.356;2023-03-25T02:10:33;97809.22;;;4.99;100.00
58239;BME280;44037;55.638;37.356;2023-03-25T02:13:02;97822.06;;;4.95;100.00
58239;BME280;44037;55.638;37.356;2023-03-25T02:15:42;97813.50;;;4.92;100.00
58239;BME280;44037;55.638;37.356;2023-03-25T02:18:21;97798.94;;;4.88;100.00
58239;BME280;44037;55.638;37.356;2023-03-25T02:27:18;97779.25;;;4.86;100.00
58239;BME280;44037;55.638;37.356;2023-03-25T02:33:13;97776.72;;;4.97;100.00
58239;BME280;44037;55.638;37.356;2023-03-25T02:36:02;97766.44;;;5.04;100.00
58239;BME280;44037;55.638;37.356;2023-03-25T02:38:41;97764.75;;;5.13;100.00
58239;BME280;44037;55.638;37.356;2023-03-25T02:41:16;97759.63;;;5.20;100.00
58239;BME280;44037;55.638;37.356;2023-03-25T02:43:52;97761.34;;;5.29;100.00
58239;BME280;44037;55.638;37.356;2023-03-25T02:46:22;97752.78;;;5.38;100.00
58239;BME280;44037;55.638;37.356;2023-03-25T02:48:55;97751.91;;;5.47;100.00
58239;BME280;44037;55.638;37.356;2023-03-25T02:51:27;97747.63;;;5.52;100.00
58239;BME280;44037;55.638;37.356;2023-03-25T02:53:59;97750.19;;;5.55;100.00
58239;BME280;44037;55.638;37.356;2023-03-25T02:56:28;97745.03;;;5.55;100.00
58239;BME280;44037;55.638;37.356;2023-03-25T02:58:58;97743.34;;;5.59;100.00
58239;BME280;44037;55.638;37.356;2023-03-25T03:01:26;97736.47;;;5.64;100.00
58239;BME280;44037;55.638;37.356;2023-03-25T03:03:53;97734.75;;;5.67;100.00
58239;BME280;44037;55.638;37.356;2023-03-25T03:06:20;97722.78;;;5.71;100.00
58239;BME280;44037;55.638;37.356;2023-03-25T03:09:01;97721.06;;;5.78;100.00
58239;BME280;44037;55.638;37.356;2023-03-25T03:11:37;97715.88;;;5.84;100.00
58239;BME280;44037;55.638;37.356;2023-03-25T03:14:18;97709.00;;;5.91;100.00
58239;BME280;44037;55.638;37.356;2023-03-25T03:16:58;97711.56;;;5.95;100.00
58239;BME280;44037;55.638;37.356;2023-03-25T03:19:35;97706.44;;;6.00;100.00
58239;BME280;44037;55.638;37.356;2023-03-25T03:22:12;97698.72;;;6.05;100.00
58239;BME280;44037;55.638;37.356;2023-03-25T03:24:47;97698.69;;;6.08;100.00
58239;BME280;44037;55.638;37.356;2023-03-25T03:27:18;97689.25;;;6.10;100.00
58239;BME280;44037;55.638;37.356;2023-03-25T03:29:52;97682.41;;;6.15;100.00
58239;BME280;44037;55.638;37.356;2023-03-25T03:32:24;97681.53;;;6.18;100.00
58239;BME280;44037;55.638;37.356;2023-03-25T03:34:55;97672.06;;;6.21;100.00
58239;BME280;44037;55.638;37.356;2023-03-25T03:37:27;97671.19;;;6.24;100.00
58239;BME280;44037;55.638;37.356;2023-03-25T03:39:59;97672.91;;;6.26;100.00
58239;BME280;44037;55.638;37.356;2023-03-25T03:42:31;97672.00;;;6.30;100.00
58239;BME280;44037;55.638;37.356;2023-03-25T03:45:04;97666.88;;;6.32;100.00
58239;BME280;44037;55.638;37.356;2023-03-25T03:47:37;97662.56;;;6.36;100.00
58239;BME280;44037;55.638;37.356;2023-03-25T03:50:08;97659.94;;;6.45;100.00
58239;BME280;44037;55.638;37.356;2023-03-25T03:52:38;97659.03;;;6.54;100.00
58239;BME280;44037;55.638;37.356;2023-03-25T03:55:12;97641.84;;;6.59;100.00
58239;BME280;44037;55.638;37.356;2023-03-25T03:57:44;97647.84;;;6.63;100.00
58239;BME280;44037;55.638;37.356;2023-03-25T04:00:16;97643.50;;;6.66;100.00
58239;BME280;44037;55.638;37.356;2023-03-25T04:02:45;97639.19;;;6.70;100.00
58239;BME280;44037;55.638;37.356;2023-03-25T04:05:16;97631.44;;;6.76;100.00
58239;BME280;44037;55.638;37.356;2023-03-25T04:07:50;97637.38;;;6.84;100.00
58239;BME280;44037;55.638;37.356;2023-03-25T04:10:25;97635.59;;;6.91;100.00
58239;BME280;44037;55.638;37.356;2023-03-25T04:13:02;97627.03;;;6.90;100.00
58239;BME280;44037;55.638;37.356;2023-03-25T04:15:31;97620.16;;;6.93;100.00
58239;BME280;44037;55.638;37.356;2023-03-25T04:17:58;97606.38;;;6.94;100.00
58239;BME280;44037;55.638;37.356;2023-03-25T04:20:27;97608.97;;;6.95;100.00
58239;BME280;44037;55.638;37.356;2023-03-25T04:22:58;97610.66;;;6.99;100.00
58239;BME280;44037;55.638;37.356;2023-03-25T04:25:27;97601.19;;;7.03;100.00
58239;BME280;44037;55.638;37.356;2023-03-25T04:27:56;97597.69;;;7.07;100.00
58239;BME280;44037;55.638;37.356;2023-03-25T04:30:24;97597.66;;;7.13;100.00
58239;BME280;44037;55.638;37.356;2023-03-25T04:32:51;97587.31;;;7.16;100.00
58239;BME280;44037;55.638;37.356;2023-03-25T04:35:19;97587.28;;;7.19;100.00
58239;BME280;44037;55.638;37.356;2023-03-25T04:37:47;97588.09;;;7.25;100.00
58239;BME280;44037;55.638;37.356;2023-03-25T04:40:15;97587.13;;;7.32;100.00
58239;BME280;44037;55.638;37.356;2023-03-25T04:42:44;97573.31;;;7.42;100.00
58239;BME280;44037;55.638;37.356;2023-03-25T04:45:12;97573.22;;;7.48;100.00
58239;BME280;44037;55.638;37.356;2023-03-25T04:47:41;97564.59;;;7.52;100.00
58239;BME280;44037;55.638;37.356;2023-03-25T04:50:17;97557.72;;;7.55;100.00
58239;BME280;44037;55.638;37.356;2023-03-25T04:52:45;97558.50;;;7.60;100.00
58239;BME280;44037;55.638;37.356;2023-03-25T04:55:13;97565.31;;;7.64;100.00
58239;BME280;44037;55.638;37.356;2023-03-25T04:57:44;97560.94;;;7.71;100.00
58239;BME280;44037;55.638;37.356;2023-03-25T05:00:13;97555.72;;;7.75;100.00
58239;BME280;44037;55.638;37.356;2023-03-25T05:02:44;97559.84;;;7.89;100.00
58239;BME280;44037;55.638;37.356;2023-03-25T05:05:12;97542.44;;;8.05;100.00
58239;BME280;44037;55.638;37.356;2023-03-25T05:07:44;97560.25;;;8.22;99.49
58239;BME280;44037;55.638;37.356;2023-03-25T05:10:12;97560.94;;;8.35;99.45
58239;BME280;44037;55.638;37.356;2023-03-25T05:12:39;97551.41;;;8.38;97.94
58239;BME280;44037;55.638;37.356;2023-03-25T05:15:09;97551.44;;;8.37;97.68
58239;BME280;44037;55.638;37.356;2023-03-25T05:17:37;97563.47;;;8.36;97.87
58239;BME280;44037;55.638;37.356;2023-03-25T05:20:05;97566.78;;;8.46;97.44
58239;BME280;44037;55.638;37.356;2023-03-25T05:22:33;97564.03;;;8.57;97.89
58239;BME280;44037;55.638;37.356;2023-03-25T05:25:03;97558.84;;;8.62;98.19
58239;BME280;44037;55.638;37.356;2023-03-25T05:27:31;97562.16;;;8.67;98.11
58239;BME280;44037;55.638;37.356;2023-03-25T05:29:59;97558.63;;;8.72;98.14
58239;BME280;44037;55.638;37.356;2023-03-25T05:32:28;97542.19;;;8.80;98.15
58239;BME280;44037;55.638;37.356;2023-03-25T05:34:58;97545.63;;;8.79;97.57
58239;BME280;44037;55.638;37.356;2023-03-25T05:37:25;97536.22;;;8.74;98.06
58239;BME280;44037;55.638;37.356;2023-03-25T05:39:52;97536.22;;;8.74;97.52
58239;BME280;44037;55.638;37.356;2023-03-25T05:42:19;97535.25;;;8.82;97.39
58239;BME280;44037;55.638;37.356;2023-03-25T05:44:48;97543.69;;;8.91;97.10
58239;BME280;44037;55.638;37.356;2023-03-25T05:47:17;97536.63;;;9.01;96.54
58239;BME280;44037;55.638;37.356;2023-03-25T05:49:48;97548.31;;;9.21;96.54
58239;BME280;44037;55.638;37.356;2023-03-25T05:52:15;97536.78;;;9.39;96.45
58239;BME280;44037;55.638;37.356;2023-03-25T05:54:43;97543.97;;;9.68;95.90
58239;BME280;44037;55.638;37.356;2023-03-25T05:57:11;97538.97;;;10.00;94.44
58239;BME280;44037;55.638;37.356;2023-03-25T05:59:38;97541.59;;;10.38;94.48
58239;BME280;44037;55.638;37.356;2023-03-25T06:02:06;97528.75;;;10.69;93.89
58239;BME280;44037;55.638;37.356;2023-03-25T06:04:33;97527.63;;;10.81;93.80
58239;BME280;44037;55.638;37.356;2023-03-25T06:07:06;97523.91;;;10.90;93.81
58239;BME280;44037;55.638;37.356;2023-03-25T06:09:40;97521.94;;;11.00;93.13
58239;BME280;44037;55.638;37.356;2023-03-25T06:12:12;97521.09;;;10.99;91.95
58239;BME280;44037;55.638;37.356;2023-03-25T06:14:39;97517.66;;;10.99;92.23
58239;BME280;44037;55.638;37.356;2023-03-25T06:17:10;97508.28;;;10.95;91.52
58239;BME280;44037;55.638;37.356;2023-03-25T06:19:38;97518.13;;;10.80;91.80
58239;BME280;44037;55.638;37.356;2023-03-25T06:22:08;97511.50;;;10.68;90.96
58239;BME280;44037;55.638;37.356;2023-03-25T06:24:35;97510.81;;;10.62;90.99
58239;BME280;44037;55.638;37.356;2023-03-25T06:27:03;97516.88;;;10.62;90.59
58239;BME280;44037;55.638;37.356;2023-03-25T06:29:31;97512.00;;;10.50;90.69
58239;BME280;44037;55.638;37.356;2023-03-25T06:31:59;97523.50;;;10.35;89.93
58239;BME280;44037;55.638;37.356;2023-03-25T06:34:26;97523.00;;;10.20;90.35
58239;BME280;44037;55.638;37.356;2023-03-25T06:36:53;97519.91;;;10.04;90.53
58239;BME280;44037;55.638;37.356;2023-03-25T06:39:21;97519.22;;;9.96;90.75
58239;BME280;44037;55.638;37.356;2023-03-25T06:41:48;97516.75;;;9.90;91.10
58239;BME280;44037;55.638;37.356;2023-03-25T06:44:16;97516.69;;;9.94;91.37
58239;BME280;44037;55.638;37.356;2023-03-25T06:46:43;97513.28;;;9.92;91.28
58239;BME280;44037;55.638;37.356;2023-03-25T06:49:10;97508.22;;;9.86;91.44
58239;BME280;44037;55.638;37.356;2023-03-25T06:51:37;97512.72;;;9.78;91.81
58239;BME280;44037;55.638;37.356;2023-03-25T06:54:04;97505.19;;;9.68;91.58
58239;BME280;44037;55.638;37.356;2023-03-25T06:56:33;97504.56;;;9.57;91.65
58239;BME280;44037;55.638;37.356;2023-03-25T06:59:00;97508.13;;;9.50;92.17
58239;BME280;44037;55.638;37.356;2023-03-25T07:01:27;97508.28;;;9.44;91.87
58239;BME280;44037;55.638;37.356;2023-03-25T07:03:54;97503.94;;;9.44;92.39
58239;BME280;44037;55.638;37.356;2023-03-25T07:06:22;97508.13;;;9.50;92.54
58239;BME280;44037;55.638;37.356;2023-03-25T07:08:50;97504.66;;;9.51;92.81
58239;BME280;44037;55.638;37.356;2023-03-25T07:11:22;97502.72;;;9.62;93.24
58239;BME280;44037;55.638;37.356;2023-03-25T07:13:52;97501.63;;;9.73;93.21
58239;BME280;44037;55.638;37.356;2023-03-25T07:16:19;97501.59;;;9.74;93.30
58239;BME280;44037;55.638;37.356;2023-03-25T07:18:46;97497.22;;;9.78;93.41
58239;BME280;44037;55.638;37.356;2023-03-25T07:21:16;97499.75;;;9.81;93.48
58239;BME280;44037;55.638;37.356;2023-03-25T07:23:43;97501.34;;;9.85;93.63
58239;BME280;44037;55.638;37.356;2023-03-25T07:26:10;97500.28;;;9.95;93.80
58239;BME280;44037;55.638;37.356;2023-03-25T07:28:38;97500.06;;;10.05;94.20
58239;BME280;44037;55.638;37.356;2023-03-25T07:31:08;97493.78;;;10.15;94.19
58239;BME280;44037;55.638;37.356;2023-03-25T07:33:38;97493.63;;;10.23;93.97
58239;BME280;44037;55.638;37.356;2023-03-25T07:36:10;97491.78;;;10.26;93.81
58239;BME280;44037;55.638;37.356;2023-03-25T07:38:38;97497.09;;;10.22;94.21
58239;BME280;44037;55.638;37.356;2023-03-25T07:41:06;97498.09;;;10.16;94.70
58239;BME280;44037;55.638;37.356;2023-03-25T07:43:33;97500.66;;;10.16;94.45
58239;BME280;44037;55.638;37.356;2023-03-25T07:46:00;97507.56;;;10.15;94.25
58239;BME280;44037;55.638;37.356;2023-03-25T07:48:29;97506.78;;;10.13;94.33
58239;BME280;44037;55.638;37.356;2023-03-25T07:50:56;97509.38;;;10.12;94.82
58239;BME280;44037;55.638;37.356;2023-03-25T07:53:23;97501.50;;;10.17;94.17
58239;BME280;44037;55.638;37.356;2023-03-25T07:55:50;97503.28;;;10.14;94.29
58239;BME280;44037;55.638;37.356;2023-03-25T07:58:18;97499.03;;;10.12;94.76
58239;BME280;44037;55.638;37.356;2023-03-25T08:00:45;97502.31;;;10.19;94.85
58239;BME280;44037;55.638;37.356;2023-03-25T08:03:13;97505.59;;;10.27;94.82
58239;BME280;44037;55.638;37.356;2023-03-25T08:05:44;97512.44;;;10.28;94.80
58239;BME280;44037;55.638;37.356;2023-03-25T08:08:12;97516.13;;;10.19;94.92
58239;BME280;44037;55.638;37.356;2023-03-25T08:10:41;97530.97;;;10.11;95.29
58239;BME280;44037;55.638;37.356;2023-03-25T08:13:08;97528.59;;;10.02;94.80
58239;BME280;44037;55.638;37.356;2023-03-25T08:15:35;97527.94;;;9.92;94.73
58239;BME280;44037;55.638;37.356;2023-03-25T08:18:03;97525.50;;;9.86;95.24
58239;BME280;44037;55.638;37.356;2023-03-25T08:20:31;97530.78;;;9.81;95.38
58239;BME280;44037;55.638;37.356;2023-03-25T08:23:00;97530.00;;;9.76;95.47
58239;BME280;44037;55.638;37.356;2023-03-25T08:25:27;97533.53;;;9.73;95.68
58239;BME280;44037;55.638;37.356;2023-03-25T08:27:55;97537.88;;;9.71;96.16
58239;BME280;44037;55.638;37.356;2023-03-25T08:30:22;97530.06;;;9.73;95.79
58239;BME280;44037;55.638;37.356;2023-03-25T08:32:49;97533.41;;;9.78;95.93
58239;BME280;44037;55.638;37.356;2023-03-25T08:35:19;97529.75;;;9.88;95.48
58239;BME280;44037;55.638;37.356;2023-03-25T08:37:47;97520.97;;;9.95;96.21
58239;BME280;44037;55.638;37.356;2023-03-25T08:40:15;97534.59;;;10.04;95.72
58239;BME280;44037;55.638;37.356;2023-03-25T08:42:43;97539.75;;;10.04;95.69
58239;BME280;44037;55.638;37.356;2023-03-25T08:45:11;97541.47;;;10.05;96.00
58239;BME280;44037;55.638;37.356;2023-03-25T08:47:39;97527.56;;;10.09;96.14
58239;BME280;44037;55.638;37.356;2023-03-25T08:50:08;97531.72;;;10.16;95.94
58239;BME280;44037;55.638;37.356;2023-03-25T08:52:35;97535.09;;;10.20;96.59
58239;BME280;44037;55.638;37.356;2023-03-25T08:55:02;97535.94;;;10.20;96.77
58239;BME280;44037;55.638;37.356;2023-03-25T08:57:30;97535.94;;;10.20;96.69
58239;BME280;44037;55.638;37.356;2023-03-25T08:59:58;97538.53;;;10.20;96.91
58239;BME280;44037;55.638;37.356;2023-03-25T09:02:25;97535.78;;;10.26;97.29
58239;BME280;44037;55.638;37.356;2023-03-25T09:04:52;97536.41;;;10.38;97.11
58239;BME280;44037;55.638;37.356;2023-03-25T09:07:19;97520.53;;;10.53;97.24
58239;BME280;44037;55.638;37.356;2023-03-25T09:09:48;97520.03;;;10.73;96.89
58239;BME280;44037;55.638;37.356;2023-03-25T09:12:15;97520.47;;;10.89;97.42
58239;BME280;44037;55.638;37.356;2023-03-25T09:14:43;97526.41;;;10.95;97.33
58239;BME280;44037;55.638;37.356;2023-03-25T09:17:10;97529.06;;;10.91;97.08
58239;BME280;44037;55.638;37.356;2023-03-25T09:19:37;97533.50;;;10.86;96.92
58239;BME280;44037;55.638;37.356;2023-03-25T09:22:05;97528.38;;;10.85;96.60
58239;BME280;44037;55.638;37.356;2023-03-25T09:24:32;97539.56;;;10.85;96.89
58239;BME280;44037;55.638;37.356;2023-03-25T09:27:00;97538.56;;;10.91;96.67
58239;BME280;44037;55.638;37.356;2023-03-25T09:29:28;97539.88;;;11.07;95.95
58239;BME280;44037;55.638;37.356;2023-03-25T09:31:56;97535.25;;;11.19;95.89
58239;BME280;44037;55.638;37.356;2023-03-25T09:34:27;97553.28;;;11.24;96.14
58239;BME280;44037;55.638;37.356;2023-03-25T09:36:55;97543.56;;;11.32;95.83
58239;BME280;44037;55.638;37.356;2023-03-25T09:39:23;97541.44;;;11.46;95.69
58239;BME280;44037;55.638;37.356;2023-03-25T09:42:03;97553.78;;;11.68;95.04
58239;BME280;44037;55.638;37.356;2023-03-25T09:44:36;97552.28;;;11.91;95.37
58239;BME280;44037;55.638;37.356;2023-03-25T09:47:08;97549.47;;;11.98;95.31
58239;BME280;44037;55.638;37.356;2023-03-25T09:49:39;97548.16;;;12.13;95.10
58239;BME280;44037;55.638;37.356;2023-03-25T09:52:14;97552.94;;;12.27;94.08
58239;BME280;44037;55.638;37.356;2023-03-25T09:54:46;97548.03;;;12.47;93.94
58239;BME280;44037;55.638;37.356;2023-03-25T09:57:17;97560.72;;;12.56;94.28
58239;BME280;44037;55.638;37.356;2023-03-25T09:59:47;97556.25;;;12.59;93.36
58239;BME280;44037;55.638;37.356;2023-03-25T10:02:26;97560.88;;;12.50;92.92
58239;BME280;44037;55.638;37.356;2023-03-25T10:08:08;97554.22;;;12.42;93.25
58239;BME280;44037;55.638;37.356;2023-03-25T10:10:43;97551.38;;;12.50;93.48
58239;BME280;44037;55.638;37.356;2023-03-25T10:13:19;97553.31;;;12.70;92.83
58239;BME280;44037;55.638;37.356;2023-03-25T10:15:52;97542.13;;;12.94;92.78
58239;BME280;44037;55.638;37.356;2023-03-25T10:18:39;97530.38;;;13.09;91.82
58239;BME280;44037;55.638;37.356;2023-03-25T10:21:12;97528.47;;;13.39;91.87
58239;BME280;44037;55.638;37.356;2023-03-25T10:23:42;97525.78;;;13.66;90.71
58239;BME280;44037;55.638;37.356;2023-03-25T10:26:15;97540.16;;;13.76;90.18
58239;BME280;44037;55.638;37.356;2023-03-25T10:28:48;97552.28;;;13.52;89.73
58239;BME280;44037;55.638;37.356;2023-03-25T10:31:20;97551.75;;;13.17;89.63
58239;BME280;44037;55.638;37.356;2023-03-25T10:33:53;97549.91;;;12.95;89.64
58239;BME280;44037;55.638;37.356;2023-03-25T10:36:26;97540.59;;;12.88;89.39
58239;BME280;44037;55.638;37.356;2023-03-25T10:38:54;97535.22;;;12.94;90.01
58239;BME280;44037;55.638;37.356;2023-03-25T10:41:25;97551.06;;;13.12;89.43
58239;BME280;44037;55.638;37.356;2023-03-25T10:43:55;97548.25;;;13.18;89.86
58239;BME280;44037;55.638;37.356;2023-03-25T10:46:27;97555.78;;;13.26;89.46
58239;BME280;44037;55.638;37.356;2023-03-25T10:48:57;97551.44;;;13.26;88.97
58239;BME280;44037;55.638;37.356;2023-03-25T10:51:28;97543.13;;;13.16;89.03
58239;BME280;44037;55.638;37.356;2023-03-25T10:53:57;97542.25;;;13.16;89.26
58239;BME280;44037;55.638;37.356;2023-03-25T10:56:28;97554.47;;;13.14;88.75
58239;BME280;44037;55.638;37.356;2023-03-25T10:58:57;97557.38;;;13.04;88.75
58239;BME280;44037;55.638;37.356;2023-03-25T11:01:34;97549.28;;;12.87;89.14
58239;BME280;44037;55.638;37.356;2023-03-25T11:04:06;97558.31;;;12.77;89.01
58239;BME280;44037;55.638;37.356;2023-03-25T11:06:36;97557.63;;;12.71;89.66
58239;BME280;44037;55.638;37.356;2023-03-25T11:09:15;97555.84;;;12.72;88.89
58239;BME280;44037;55.638;37.356;2023-03-25T11:11:43;97560.31;;;12.68;89.00
58239;BME280;44037;55.638;37.356;2023-03-25T11:14:11;97552.47;;;12.70;89.45
58239;BME280;44037;55.638;37.356;2023-03-25T11:16:44;97555.03;;;12.71;89.17
58239;BME280;44037;55.638;37.356;2023-03-25T11:19:17;97555.94;;;12.69;89.27
58239;BME280;44037;55.638;37.356;2023-03-25T11:21:47;97552.56;;;12.67;88.74
58239;BME280;44037;55.638;37.356;2023-03-25T11:24:17;97552.69;;;12.64;89.54
58239;BME280;44037;55.638;37.356;2023-03-25T11:26:45;97557.88;;;12.64;89.48
58239;BME280;44037;55.638;37.356;2023-03-25T11:29:18;97544.81;;;12.65;89.75
58239;BME280;44037;55.638;37.356;2023-03-25T11:31:56;97549.34;;;12.60;89.50
58239;BME280;44037;55.638;37.356;2023-03-25T11:34:25;97544.13;;;12.60;89.01
58239;BME280;44037;55.638;37.356;2023-03-25T11:36:54;97549.22;;;12.63;89.02
58239;BME280;44037;55.638;37.356;2023-03-25T11:39:29;97544.91;;;12.62;88.82
58239;BME280;44037;55.638;37.356;2023-03-25T11:41:56;97554.53;;;12.60;89.27
58239;BME280;44037;55.638;37.356;2023-03-25T11:44:26;97546.91;;;12.54;88.65
58239;BME280;44037;55.638;37.356;2023-03-25T11:46:56;97545.47;;;12.45;88.63
58239;BME280;44037;55.638;37.356;2023-03-25T11:49:26;97543.91;;;12.39;88.54
58239;BME280;44037;55.638;37.356;2023-03-25T11:52:01;97545.00;;;12.32;88.27
58239;BME280;44037;55.638;37.356;2023-03-25T11:54:32;97550.44;;;12.24;88.45
58239;BME280;44037;55.638;37.356;2023-03-25T11:57:02;97552.38;;;12.18;88.70
58239;BME280;44037;55.638;37.356;2023-03-25T11:59:35;97558.63;;;12.10;88.75
58239;BME280;44037;55.638;37.356;2023-03-25T12:02:17;97555.44;;;12.02;88.92
58239;BME280;44037;55.638;37.356;2023-03-25T12:04:56;97559.91;;;11.95;89.87
58239;BME280;44037;55.638;37.356;2023-03-25T12:07:24;97565.16;;;11.94;89.96
58239;BME280;44037;55.638;37.356;2023-03-25T12:09:56;97565.16;;;11.94;90.47
58239;BME280;44037;55.638;37.356;2023-03-25T12:12:42;97569.28;;;12.01;90.44
58239;BME280;44037;55.638;37.356;2023-03-25T12:15:20;97568.09;;;12.13;90.55
58239;BME280;44037;55.638;37.356;2023-03-25T12:17:56;97579.09;;;12.21;90.09
58239;BME280;44037;55.638;37.356;2023-03-25T12:20:32;97570.34;;;12.24;90.11
58239;BME280;44037;55.638;37.356;2023-03-25T12:23:12;97570.16;;;12.30;90.47
58239;BME280;44037;55.638;37.356;2023-03-25T12:25:53;97573.56;;;12.32;91.25
58239;BME280;44037;55.638;37.356;2023-03-25T12:28:46;97567.34;;;12.38;90.39
58239;BME280;44037;55.638;37.356;2023-03-25T12:31:22;97562.75;;;12.46;90.46
58239;BME280;44037;55.638;37.356;2023-03-25T12:34:05;97559.84;;;12.55;89.98
58239;BME280;44037;55.638;37.356;2023-03-25T12:36:46;97558.03;;;12.59;90.64
58239;BME280;44037;55.638;37.356;2023-03-25T12:39:26;97554.47;;;12.62;90.74
58239;BME280;44037;55.638;37.356;2023-03-25T12:42:04;97563.06;;;12.64;90.29
58239;BME280;44037;55.638;37.356;2023-03-25T12:44:50;97564.38;;;12.49;89.86
58239;BME280;44037;55.638;37.356;2023-03-25T12:47:23;97575.16;;;12.36;90.15
58239;BME280;44037;55.638;37.356;2023-03-25T12:52:53;97568.63;;;12.23;89.99
58239;BME280;44037;55.638;37.356;2023-03-25T12:55:42;97556.63;;;12.20;90.81
58239;BME280;44037;55.638;37.356;2023-03-25T12:58:40;97553.88;;;12.25;90.46
58239;BME280;44037;55.638;37.356;2023-03-25T13:01:21;97547.47;;;12.37;91.03
58239;BME280;44037;55.638;37.356;2023-03-25T13:04:24;97554.84;;;12.49;90.48
58239;BME280;44037;55.638;37.356;2023-03-25T13:06:59;97555.41;;;12.59;90.06
58239;BME280;44037;55.638;37.356;2023-03-25T13:09:33;97548.41;;;12.61;89.72
58239;BME280;44037;55.638;37.356;2023-03-25T13:12:03;97560.66;;;12.57;90.58
58239;BME280;44037;55.638;37.356;2023-03-25T13:14:39;97557.00;;;12.63;90.43
58239;BME280;44037;55.638;37.356;2023-03-25T13:17:13;97545.03;;;12.59;90.00
58239;BME280;44037;55.638;37.356;2023-03-25T13:19:45;97552.94;;;12.54;90.55
58239;BME280;44037;55.638;37.356;2023-03-25T13:22:16;97551.28;;;12.53;89.81
58239;BME280;44037;55.638;37.356;2023-03-25T13:24:51;97554.63;;;12.57;90.12
58239;BME280;44037;55.638;37.356;2023-03-25T13:27:21;97549.34;;;12.60;90.07